Date,TemperatureHighF,TemperatureAvgF,TemperatureLowF,DewpointHighF,DewpointAvgF,DewpointLowF,HumidityHigh,HumidityAvg,HumidityLow,PressureMaxIn,PressureMinIn,WindSpeedMaxMPH,WindSpeedAvgMPH,GustSpeedMaxMPH,PrecipitationSumIn
2013-3-1,30,26,22,16,11,8,74,55,42,0.00,40.00,7,3,15,0.00
2013-3-2,27,26,24,3,2,1,39,35,33,0.00,40.00,10,8,16,0.00
2013-3-3,23,23,23,9,9,9,55,55,55,0.00,40.00,1,1,4,0.00
2013-3-4,32,26,16,14,11,9,72,53,44,0.00,40.00,6,3,14,0.00
2013-3-5,28,27,25,24,22,20,89,84,80,0.00,40.00,5,4,9,0.00
2013-3-6,27,27,26,21,21,20,80,77,77,0.00,40.00,9,8,17,0.00
2013-3-7,28,7,26,20,-70,-100,99,91,53,0.00,40.00,2,0,9,0.00
2013-3-8,5,2,5,2,-56,-100,99,94,88,0.00,40.00,0,0,1,0.00
2013-3-9,39,34,31,30,27,24,75,72,70,0.00,40.00,6,3,14,0.00
2013-3-10,35,35,35,33,33,33,94,94,94,0.00,40.00,1,1,4,0.00
2013-3-11,34,32,28,30,27,20,93,84,73,0.00,40.00,9,6,19,0.00
2013-3-12,29,26,22,22,16,10,85,66,52,0.00,40.00,12,7,19,0.00
2013-3-13,32,24,16,11,4,-3,77,48,23,0.00,40.00,12,9,21,0.00
2013-3-14,34,23,9,25,13,5,86,68,43,0.00,40.00,7,2,12,0.00
2013-3-15,37,31,26,30,27,24,92,85,74,0.00,40.00,4,2,16,0.00
2013-3-16,30,24,18,24,14,9,92,68,43,0.00,40.00,9,4,16,0.00
2013-3-17,24,9,9,10,-45,-100,99,79,39,0.00,40.00,6,2,13,0.00
2013-3-18,31,23,15,28,19,9,88,83,72,0.00,40.00,11,3,24,0.00
2013-3-19,29,22,12,5,2,-1,72,44,30,0.00,40.00,17,12,32,0.00
2013-3-20,20,13,4,-2,-5,-9,55,45,37,0.00,40.00,14,8,26,0.00
2013-3-21,30,14,2,5,1,-9,73,57,32,0.00,40.00,10,4,16,0.00
2013-3-22,38,22,6,10,6,0,80,53,30,0.00,40.00,10,3,12,0.00
2013-3-23,44,27,11,20,12,6,88,60,28,0.00,40.00,4,1,12,0.00
2013-3-24,33,30,27,21,20,17,78,66,55,0.00,40.00,7,2,17,0.00
2013-3-25,36,30,21,20,18,14,80,61,52,0.00,40.00,10,6,18,0.00
2013-3-26,39,34,28,22,18,17,63,53,41,0.00,40.00,11,6,19,0.00
2013-3-27,45,30,23,21,1,-100,99,56,29,0.00,40.00,9,3,14,0.00
2013-3-28,49,34,20,19,15,12,83,52,25,0.00,40.00,6,2,12,0.00
2013-3-29,50,34,19,23,16,13,90,57,24,0.00,40.00,4,-8,11,0.00
2013-3-30,51,38,26,41,28,-100,93,72,42,0.00,40.00,11,4,20,0.00
2013-3-31,42,37,31,38,27,9,93,72,37,0.00,40.00,12,7,24,0.00